Time;durP1;ratioP1;P1;durP2;ratioP2;P2;SDS_P1;SDS_P2;PMS_P1;PMS_P2;Temp;Humidity;BMP_temperature;BMP_pressure;BME280_temperature;BME280_humidity;BME280_pressure;Samples;Min_cycle;Max_cycle;Signal;HPM_P1;HPM_P2
2022/01/14 00:00:59;;;;;;;29.03;14.70;;;;;;;;;;4973117;28;20258;-50
2022/01/14 00:03:25;;;;;;;33.27;16.10;;;;;;;;;;4973349;28;20404;-49
2022/01/14 00:05:51;;;;;;;25.93;13.53;;;;;;;;;;4972815;28;20457;-51
2022/01/14 00:08:19;;;;;;;29.93;14.40;;;;;;;;;;4972275;28;20398;-49
2022/01/14 00:10:49;;;;;;;34.95;13.48;;;;;;;;;;4978112;28;20444;-49
2022/01/14 00:13:39;;;;;;;28.73;14.20;;;;;;;;;;4971714;28;20186;-50
2022/01/14 00:16:01;;;;;;;32.95;14.07;;;;;;;;;;4972917;28;20559;-49
2022/01/14 00:18:27;;;;;;;31.20;14.97;;;;;;;;;;4972183;28;20310;-49
2022/01/14 00:20:53;;;;;;;28.73;13.60;;;;;;;;;;4972829;28;20423;-49
2022/01/14 00:23:26;;;;;;;31.17;15.63;;;;;;;;;;4972868;28;20440;-49
2022/01/14 00:31:56;;;;;;;37.58;14.60;;;;;;;;;;4970464;28;20232;-49
2022/01/14 00:34:22;;;;;;;24.15;13.48;;;;;;;;;;4973010;28;20766;-49
2022/01/14 00:36:48;;;;;;;28.43;15.50;;;;;;;;;;4972816;28;20265;-49
2022/01/14 00:39:15;;;;;;;31.97;15.40;;;;;;;;;;4971781;28;20491;-49
2022/01/14 00:41:43;;;;;;;24.00;13.30;;;;;;;;;;4972926;28;20451;-51
2022/01/14 00:44:11;;;;;;;24.92;12.68;;;;;;;;;;4972307;28;20186;-49
2022/01/14 00:46:41;;;;;;;30.45;13.95;;;;;;;;;;4972797;28;20571;-49
2022/01/14 00:49:08;;;;;;;35.00;14.75;;;;;;;;;;4972049;28;20217;-50
2022/01/14 00:51:35;;;;;;;27.92;14.63;;;;;;;;;;4972782;28;20189;-49
2022/01/14 00:54:01;;;;;;;23.27;13.43;;;;;;;;;;4973197;28;20588;-50
2022/01/14 00:59:17;;;;;;;36.10;14.20;;;;;;;;;;4974694;28;21032;-50
2022/01/14 01:01:45;;;;;;;31.63;14.45;;;;;;;;;;4975129;28;20185;-49
2022/01/14 01:04:11;;;;;;;28.52;15.48;;;;;;;;;;4976293;28;20162;-49
2022/01/14 01:06:38;;;;;;;23.58;13.60;;;;;;;;;;4976034;28;20197;-51
2022/01/14 01:09:09;;;;;;;33.22;15.95;;;;;;;;;;4974810;28;20205;-50
2022/01/14 01:11:38;;;;;;;32.15;15.95;;;;;;;;;;4976241;28;20181;-49
2022/01/14 01:14:11;;;;;;;33.30;15.80;;;;;;;;;;4976090;28;20715;-50
2022/01/14 01:16:37;;;;;;;25.77;15.93;;;;;;;;;;4975098;28;20641;-49
2022/01/14 01:19:03;;;;;;;31.63;15.63;;;;;;;;;;4975017;28;20192;-49
2022/01/14 01:21:29;;;;;;;28.35;14.70;;;;;;;;;;4975793;28;20182;-49
2022/01/14 01:23:55;;;;;;;26.70;15.13;;;;;;;;;;4975701;28;20256;-49
2022/01/14 01:26:29;;;;;;;29.67;15.73;;;;;;;;;;4975854;28;20483;-50
2022/01/14 01:31:35;;;;;;;27.33;15.10;;;;;;;;;;4976010;28;20173;-49
2022/01/14 01:34:01;;;;;;;34.97;16.38;;;;;;;;;;4975646;28;20401;-49
2022/01/14 01:36:27;;;;;;;32.25;16.05;;;;;;;;;;4974640;28;20628;-49
2022/01/14 01:38:53;;;;;;;36.13;16.23;;;;;;;;;;4974325;28;20217;-49
2022/01/14 01:41:20;;;;;;;36.13;17.43;;;;;;;;;;4975198;28;20402;-49
2022/01/14 01:43:52;;;;;;;27.23;15.05;;;;;;;;;;4975066;28;20405;-49
2022/01/14 01:46:19;;;;;;;29.52;15.38;;;;;;;;;;4975104;28;20284;-49
2022/01/14 01:51:50;;;;;;;31.52;14.77;;;;;;;;;;4975267;28;20160;-50
2022/01/14 01:54:17;;;;;;;31.25;16.30;;;;;;;;;;4974786;28;20198;-49
2022/01/14 01:56:43;;;;;;;30.48;15.75;;;;;;;;;;4975174;28;20193;-49
2022/01/14 01:59:09;;;;;;;28.92;15.57;;;;;;;;;;4974068;28;20205;-49
2022/01/14 02:01:38;;;;;;;26.30;13.48;;;;;;;;;;4973542;28;20178;-50
2022/01/14 02:04:03;;;;;;;32.70;15.48;;;;;;;;;;4974248;28;20185;-50
2022/01/14 02:06:30;;;;;;;40.00;15.40;;;;;;;;;;4974060;28;20632;-50
2022/01/14 02:08:55;;;;;;;27.55;14.85;;;;;;;;;;4973224;28;20790;-49
2022/01/14 02:11:21;;;;;;;25.13;14.90;;;;;;;;;;4974637;28;20209;-49
2022/01/14 02:13:53;;;;;;;28.90;14.60;;;;;;;;;;4974505;28;20472;-49
2022/01/14 02:17:00;;;;;;;24.92;15.85;;;;;;;;;;4974510;28;20599;-49
2022/01/14 02:19:27;;;;;;;28.48;15.02;;;;;;;;;;4973719;28;20212;-50
2022/01/14 02:22:13;;;;;;;30.50;14.73;;;;;;;;;;4973770;28;20174;-50
2022/01/14 02:27:09;;;;;;;29.17;15.43;;;;;;;;;;4974282;28;20676;-49
2022/01/14 02:29:35;;;;;;;33.97;15.77;;;;;;;;;;4973307;28;20669;-50
2022/01/14 02:32:01;;;;;;;34.40;15.20;;;;;;;;;;4974363;28;20177;-51
2022/01/14 02:34:27;;;;;;;30.20;14.45;;;;;;;;;;4974231;28;20598;-51
2022/01/14 02:36:54;;;;;;;32.22;13.90;;;;;;;;;;4973786;28;20177;-49
2022/01/14 02:39:20;;;;;;;25.20;14.90;;;;;;;;;;4973303;28;20201;-50
2022/01/14 02:41:49;;;;;;;29.40;16.35;;;;;;;;;;4974065;28;20773;-49
2022/01/14 02:44:19;;;;;;;28.67;15.32;;;;;;;;;;4973855;28;20177;-49
2022/01/14 02:46:53;;;;;;;30.48;14.38;;;;;;;;;;4972889;28;20201;-50
2022/01/14 02:49:20;;;;;;;33.15;16.20;;;;;;;;;;4973240;28;20185;-49
2022/01/14 02:51:46;;;;;;;38.15;17.50;;;;;;;;;;4973924;28;20169;-49
2022/01/14 02:54:15;;;;;;;32.30;16.80;;;;;;;;;;4973784;28;20622;-49
2022/01/14 02:56:43;;;;;;;31.55;16.52;;;;;;;;;;4973850;28;20166;-49
2022/01/14 02:59:10;;;;;;;32.00;17.02;;;;;;;;;;4972868;28;20202;-49
2022/01/14 03:01:36;;;;;;;28.92;17.00;;;;;;;;;;4973761;28;20216;-49
2022/01/14 03:04:03;;;;;;;28.50;15.73;;;;;;;;;;4973560;28;20169;-49
2022/01/14 03:06:29;;;;;;;33.58;16.33;;;;;;;;;;4973602;28;20205;-50
2022/01/14 03:08:56;;;;;;;35.67;15.38;;;;;;;;;;4972722;28;20672;-49
2022/01/14 03:11:33;;;;;;;42.00;17.25;;;;;;;;;;4973453;28;20189;-49
2022/01/14 03:13:59;;;;;;;36.47;15.98;;;;;;;;;;4972400;28;20189;-49
2022/01/14 03:16:26;;;;;;;33.67;16.88;;;;;;;;;;4973545;28;20182;-49
2022/01/14 03:18:54;;;;;;;34.80;16.45;;;;;;;;;;4972236;28;20197;-51
2022/01/14 03:21:29;;;;;;;27.42;16.88;;;;;;;;;;4973376;28;20176;-49
2022/01/14 03:24:17;;;;;;;32.40;15.63;;;;;;;;;;4973451;28;20177;-49
2022/01/14 03:26:41;;;;;;;29.65;16.15;;;;;;;;;;4973099;28;20209;-49
2022/01/14 03:29:07;;;;;;;31.02;17.23;;;;;;;;;;4972502;28;20185;-49
2022/01/14 03:31:33;;;;;;;38.63;16.27;;;;;;;;;;4973241;28;20649;-49
2022/01/14 03:33:59;;;;;;;33.23;16.77;;;;;;;;;;4973144;28;20172;-50
2022/01/14 03:36:25;;;;;;;41.03;18.92;;;;;;;;;;4973105;28;20401;-49
2022/01/14 03:38:51;;;;;;;26.58;15.57;;;;;;;;;;4972474;28;20277;-49
2022/01/14 03:41:17;;;;;;;32.27;16.73;;;;;;;;;;4973177;28;20256;-49
2022/01/14 03:43:43;;;;;;;32.57;16.13;;;;;;;;;;4972348;28;20428;-49
2022/01/14 03:46:09;;;;;;;34.78;16.40;;;;;;;;;;4972952;28;20451;-49
2022/01/14 03:48:35;;;;;;;32.83;16.15;;;;;;;;;;4972298;28;20266;-49
2022/01/14 03:51:01;;;;;;;38.95;17.27;;;;;;;;;;4973070;28;20256;-49
2022/01/14 03:53:28;;;;;;;27.85;14.32;;;;;;;;;;4972979;28;20165;-49
2022/01/14 03:55:54;;;;;;;33.65;14.70;;;;;;;;;;4973033;28;20170;-49
2022/01/14 03:58:20;;;;;;;32.28;15.75;;;;;;;;;;4972140;28;20642;-50
2022/01/14 04:00:46;;;;;;;37.20;17.10;;;;;;;;;;4972966;28;20178;-49
2022/01/14 04:03:12;;;;;;;28.75;16.30;;;;;;;;;;4972805;28;20397;-50
2022/01/14 04:05:37;;;;;;;29.63;15.37;;;;;;;;;;4972899;28;20279;-51
2022/01/14 04:08:04;;;;;;;34.10;15.50;;;;;;;;;;4972147;28;20405;-49
2022/01/14 04:10:30;;;;;;;33.97;15.13;;;;;;;;;;4972558;28;20467;-48
2022/01/14 04:13:04;;;;;;;28.13;15.65;;;;;;;;;;4972719;28;20231;-51
2022/01/14 04:15:37;;;;;;;39.88;16.17;;;;;;;;;;4971847;28;20173;-49
2022/01/14 04:18:03;;;;;;;58.45;31.33;;;;;;;;;;4971995;28;20719;-51
2022/01/14 04:20:30;;;;;;;34.05;18.73;;;;;;;;;;4972897;28;20221;-49
2022/01/14 04:22:56;;;;;;;37.33;18.50;;;;;;;;;;4972861;28;20166;-49
2022/01/14 04:25:22;;;;;;;37.00;16.38;;;;;;;;;;4972633;28;20198;-49
2022/01/14 04:27:49;;;;;;;30.95;16.20;;;;;;;;;;4972684;28;20533;-49
2022/01/14 04:30:15;;;;;;;26.15;14.63;;;;;;;;;;4973346;28;20601;-51
2022/01/14 04:32:41;;;;;;;31.23;14.88;;;;;;;;;;4976495;28;20169;-48
2022/01/14 04:35:08;;;;;;;29.03;15.43;;;;;;;;;;4976402;28;20174;-49
2022/01/14 04:37:39;;;;;;;31.70;14.85;;;;;;;;;;4976318;28;20476;-51
2022/01/14 04:40:05;;;;;;;33.95;17.05;;;;;;;;;;4975587;28;20562;-49
2022/01/14 04:42:32;;;;;;;35.28;17.15;;;;;;;;;;4976357;28;20177;-49
2022/01/14 04:44:58;;;;;;;37.40;17.95;;;;;;;;;;4975060;28;20212;-49
2022/01/14 04:47:44;;;;;;;31.47;17.33;;;;;;;;;;4976155;28;20166;-48
2022/01/14 04:50:10;;;;;;;30.23;16.60;;;;;;;;;;4975461;28;20453;-49
2022/01/14 04:52:36;;;;;;;36.10;15.38;;;;;;;;;;4976135;28;20171;-49
2022/01/14 04:55:02;;;;;;;34.93;17.27;;;;;;;;;;4975983;28;20174;-49
2022/01/14 04:57:28;;;;;;;35.70;17.75;;;;;;;;;;4975930;28;20465;-49
2022/01/14 04:59:54;;;;;;;36.73;17.17;;;;;;;;;;4975337;28;20600;-48
2022/01/14 05:05:27;;;;;;;41.83;17.30;;;;;;;;;;4975794;28;20531;-49
2022/01/14 05:07:53;;;;;;;32.13;16.98;;;;;;;;;;4975729;28;20862;-49
2022/01/14 05:10:36;;;;;;;40.42;18.77;;;;;;;;;;4975226;28;20193;-48
2022/01/14 05:13:08;;;;;;;33.25;17.73;;;;;;;;;;4962471;28;20207;-50
2022/01/14 05:15:34;;;;;;;38.53;19.70;;;;;;;;;;4974757;28;20268;-50
2022/01/14 05:18:00;;;;;;;42.13;20.47;;;;;;;;;;4974925;28;20423;-49
2022/01/14 05:20:26;;;;;;;42.83;19.80;;;;;;;;;;4975472;28;20519;-49
2022/01/14 05:22:52;;;;;;;30.27;16.23;;;;;;;;;;4974730;28;20433;-49
2022/01/14 05:25:18;;;;;;;38.80;16.73;;;;;;;;;;4975369;28;20472;-48
2022/01/14 05:27:44;;;;;;;39.45;16.83;;;;;;;;;;4975312;28;20504;-49
2022/01/14 05:30:12;;;;;;;39.00;18.13;;;;;;;;;;4973815;28;20276;-49
2022/01/14 05:32:45;;;;;;;40.72;18.65;;;;;;;;;;4975339;28;20413;-50
2022/01/14 05:35:12;;;;;;;43.85;19.67;;;;;;;;;;4975401;28;20729;-50
2022/01/14 05:37:37;;;;;;;31.65;17.15;;;;;;;;;;4975151;28;20292;-49
2022/01/14 05:40:04;;;;;;;33.93;18.77;;;;;;;;;;4974478;28;20297;-49
2022/01/14 05:42:33;;;;;;;39.28;18.60;;;;;;;;;;4974782;28;20401;-49
2022/01/14 05:44:59;;;;;;;39.03;18.60;;;;;;;;;;4975197;28;20193;-49
2022/01/14 05:47:25;;;;;;;45.20;20.00;;;;;;;;;;4975005;28;20181;-49
2022/01/14 05:49:51;;;;;;;30.27;16.60;;;;;;;;;;4973565;28;20552;-49
2022/01/14 05:52:19;;;;;;;44.93;18.83;;;;;;;;;;4975109;28;20786;-49
2022/01/14 05:54:45;;;;;;;44.40;17.23;;;;;;;;;;4974891;28;20420;-49
2022/01/14 05:57:11;;;;;;;44.87;18.67;;;;;;;;;;4974889;28;20638;-49
2022/01/14 05:59:37;;;;;;;45.63;19.20;;;;;;;;;;4974089;28;20849;-51
2022/01/14 06:02:03;;;;;;;32.35;18.15;;;;;;;;;;4974740;28;20405;-51
2022/01/14 06:04:29;;;;;;;34.00;17.10;;;;;;;;;;4974792;28;20201;-49
2022/01/14 06:06:55;;;;;;;38.00;19.20;;;;;;;;;;4974669;28;20674;-49
2022/01/14 06:09:21;;;;;;;35.00;17.40;;;;;;;;;;4973800;28;20420;-48
2022/01/14 06:11:47;;;;;;;37.27;16.67;;;;;;;;;;4974568;28;20427;-49
2022/01/14 06:14:13;;;;;;;43.30;18.20;;;;;;;;;;4973824;28;20466;-49
2022/01/14 06:16:39;;;;;;;34.30;17.53;;;;;;;;;;4974397;28;20413;-49
2022/01/14 06:19:05;;;;;;;42.23;18.20;;;;;;;;;;4973710;28;20425;-49
2022/01/14 06:21:31;;;;;;;31.13;17.20;;;;;;;;;;4974407;28;20894;-49
2022/01/14 06:23:57;;;;;;;42.78;25.90;;;;;;;;;;4974419;28;20552;-51
2022/01/14 06:26:23;;;;;;;46.97;23.90;;;;;;;;;;4974308;28;20292;-48
2022/01/14 06:28:49;;;;;;;38.70;19.50;;;;;;;;;;4973582;28;20417;-52
2022/01/14 06:31:15;;;;;;;44.43;18.77;;;;;;;;;;4974209;28;20170;-51
2022/01/14 06:33:41;;;;;;;42.70;18.57;;;;;;;;;;4974292;28;20405;-49
2022/01/14 06:36:07;;;;;;;57.50;18.52;;;;;;;;;;4974193;28;20409;-49
2022/01/14 06:38:33;;;;;;;64.15;17.25;;;;;;;;;;4973665;28;20197;-49
2022/01/14 06:40:59;;;;;;;41.27;17.80;;;;;;;;;;4972712;28;20228;-49
2022/01/14 06:43:25;;;;;;;46.33;18.20;;;;;;;;;;4974133;28;20409;-49
2022/01/14 06:45:51;;;;;;;53.92;20.13;;;;;;;;;;4973999;28;20836;-49
2022/01/14 06:48:17;;;;;;;43.43;16.20;;;;;;;;;;4972352;28;20177;-49
2022/01/14 06:50:43;;;;;;;51.60;19.13;;;;;;;;;;4974127;28;20818;-48
2022/01/14 06:53:09;;;;;;;32.33;16.88;;;;;;;;;;4973089;28;20390;-50
2022/01/14 06:55:35;;;;;;;41.17;16.60;;;;;;;;;;4973934;28;20174;-49
2022/01/14 06:58:01;;;;;;;48.42;19.40;;;;;;;;;;4973116;28;20409;-50
2022/01/14 07:00:28;;;;;;;32.60;17.97;;;;;;;;;;4973728;28;20203;-49
2022/01/14 07:02:54;;;;;;;40.28;17.33;;;;;;;;;;4973672;28;20936;-49
2022/01/14 07:05:20;;;;;;;29.40;17.10;;;;;;;;;;4973666;28;20201;-49
2022/01/14 07:07:46;;;;;;;45.73;17.60;;;;;;;;;;4972798;28;20169;-50
2022/01/14 07:10:12;;;;;;;40.85;17.42;;;;;;;;;;4971368;28;20882;-51
2022/01/14 07:12:43;;;;;;;41.60;17.40;;;;;;;;;;4971372;28;20186;-49
2022/01/14 07:15:10;;;;;;;52.03;21.05;;;;;;;;;;4973028;28;20386;-49
2022/01/14 07:17:37;;;;;;;42.92;18.35;;;;;;;;;;4972720;28;20264;-51
2022/01/14 07:20:07;;;;;;;39.38;19.45;;;;;;;;;;4972444;28;20197;-49
2022/01/14 07:22:33;;;;;;;61.05;19.83;;;;;;;;;;4973457;28;20244;-49
2022/01/14 07:24:59;;;;;;;50.30;19.53;;;;;;;;;;4973302;28;20177;-50
2022/01/14 07:27:25;;;;;;;41.60;19.60;;;;;;;;;;4973266;28;20397;-49
2022/01/14 07:29:51;;;;;;;33.38;18.83;;;;;;;;;;4972473;28;20181;-49
2022/01/14 07:32:17;;;;;;;33.30;18.67;;;;;;;;;;4973289;28;20228;-50
2022/01/14 07:34:45;;;;;;;36.20;18.70;;;;;;;;;;4973175;28;20504;-48
2022/01/14 07:37:11;;;;;;;35.85;21.33;;;;;;;;;;4973149;28;20401;-49
2022/01/14 07:39:37;;;;;;;35.20;18.93;;;;;;;;;;4972437;28;20193;-48
2022/01/14 07:42:03;;;;;;;44.90;19.90;;;;;;;;;;4972160;28;20483;-48
2022/01/14 07:44:29;;;;;;;38.85;19.45;;;;;;;;;;4973302;28;20823;-48
2022/01/14 07:46:55;;;;;;;30.63;17.40;;;;;;;;;;4972968;28;20202;-49
2022/01/14 07:49:21;;;;;;;39.90;18.50;;;;;;;;;;4971983;28;20239;-49
2022/01/14 07:51:47;;;;;;;34.83;16.80;;;;;;;;;;4972930;28;20519;-48
2022/01/14 07:54:13;;;;;;;33.10;17.07;;;;;;;;;;4973019;28;20260;-50
2022/01/14 07:56:45;;;;;;;40.42;21.70;;;;;;;;;;4972867;28;20488;-50
2022/01/14 07:59:11;;;;;;;36.75;17.88;;;;;;;;;;4972322;28;20665;-48
2022/01/14 08:01:37;;;;;;;29.77;17.55;;;;;;;;;;4972919;28;20184;-49
2022/01/14 08:04:05;;;;;;;32.08;17.42;;;;;;;;;;4973999;28;20185;-49
2022/01/14 08:06:32;;;;;;;33.85;18.52;;;;;;;;;;4976793;28;20200;-49
2022/01/14 08:08:59;;;;;;;28.13;16.63;;;;;;;;;;4976124;28;20588;-49
2022/01/14 08:11:24;;;;;;;35.53;16.45;;;;;;;;;;4976205;28;20199;-49
2022/01/14 08:13:50;;;;;;;33.27;17.90;;;;;;;;;;4976842;28;20173;-49
2022/01/14 08:16:16;;;;;;;31.13;16.80;;;;;;;;;;4976784;28;20407;-49
2022/01/14 08:18:42;;;;;;;32.73;16.30;;;;;;;;;;4975971;28;20909;-50
2022/01/14 08:21:08;;;;;;;27.48;16.83;;;;;;;;;;4976759;28;20409;-48
2022/01/14 08:23:34;;;;;;;28.40;16.40;;;;;;;;;;4977148;28;20200;-49
2022/01/14 08:26:00;;;;;;;31.90;16.27;;;;;;;;;;4976733;28;20488;-49
2022/01/14 08:28:27;;;;;;;32.83;16.92;;;;;;;;;;4975819;28;20425;-49
2022/01/14 08:30:53;;;;;;;34.35;17.10;;;;;;;;;;4976567;28;20552;-49
2022/01/14 08:33:19;;;;;;;29.65;15.93;;;;;;;;;;4976498;28;20205;-51
2022/01/14 08:35:46;;;;;;;31.02;14.98;;;;;;;;;;4976444;28;20177;-48
2022/01/14 08:38:12;;;;;;;29.00;16.17;;;;;;;;;;4975478;28;20174;-49
2022/01/14 08:40:39;;;;;;;34.30;17.95;;;;;;;;;;4975317;28;20181;-49
2022/01/14 08:43:05;;;;;;;32.35;18.58;;;;;;;;;;4976436;28;20528;-49
2022/01/14 08:45:31;;;;;;;35.25;18.70;;;;;;;;;;4976232;28;20196;-49
2022/01/14 08:47:57;;;;;;;42.35;20.38;;;;;;;;;;4975639;28;20692;-48
2022/01/14 08:50:24;;;;;;;42.25;17.77;;;;;;;;;;4975922;28;20198;-49
2022/01/14 08:52:50;;;;;;;40.88;18.20;;;;;;;;;;4976021;28;20185;-49
2022/01/14 08:55:17;;;;;;;42.03;21.00;;;;;;;;;;4978088;28;20189;-50
2022/01/14 08:57:47;;;;;;;43.78;22.15;;;;;;;;;;4975861;28;20413;-49
2022/01/14 09:00:13;;;;;;;31.27;18.23;;;;;;;;;;4975225;28;20754;-48
2022/01/14 09:02:39;;;;;;;35.80;19.05;;;;;;;;;;4975764;28;20173;-50
2022/01/14 09:05:06;;;;;;;37.83;19.97;;;;;;;;;;4975732;28;20193;-49
2022/01/14 09:07:32;;;;;;;34.72;19.25;;;;;;;;;;4975642;28;20405;-51
2022/01/14 09:09:58;;;;;;;34.30;18.70;;;;;;;;;;4974137;28;20232;-49
2022/01/14 09:12:24;;;;;;;41.37;19.10;;;;;;;;;;4974670;28;20421;-49
2022/01/14 09:14:50;;;;;;;40.90;21.42;;;;;;;;;;4974300;28;20561;-48
2022/01/14 09:17:17;;;;;;;44.97;20.88;;;;;;;;;;4974894;28;20166;-48
2022/01/14 09:19:43;;;;;;;52.92;21.58;;;;;;;;;;4974889;28;20708;-49
2022/01/14 09:22:09;;;;;;;71.22;24.98;;;;;;;;;;4975557;28;20195;-49
2022/01/14 09:24:36;;;;;;;45.20;21.60;;;;;;;;;;4975545;28;20189;-48
2022/01/14 09:27:02;;;;;;;58.13;23.83;;;;;;;;;;4975412;28;20248;-48
2022/01/14 09:29:28;;;;;;;67.68;23.27;;;;;;;;;;4974672;28;20211;-49
2022/01/14 09:31:54;;;;;;;55.63;23.57;;;;;;;;;;4975456;28;20651;-49
2022/01/14 09:34:20;;;;;;;51.67;21.73;;;;;;;;;;4975363;28;20398;-49
2022/01/14 09:36:46;;;;;;;63.67;22.27;;;;;;;;;;4973466;28;20413;-48
2022/01/14 09:39:12;;;;;;;61.30;23.80;;;;;;;;;;4974632;28;20424;-49
2022/01/14 09:41:39;;;;;;;62.58;23.98;;;;;;;;;;4974165;28;20932;-49
2022/01/14 09:44:05;;;;;;;69.20;24.25;;;;;;;;;;4975103;28;20198;-48
2022/01/14 09:46:31;;;;;;;64.68;23.10;;;;;;;;;;4975038;28;20197;-49
2022/01/14 09:48:57;;;;;;;79.70;22.63;;;;;;;;;;4974202;28;20193;-51
2022/01/14 09:51:24;;;;;;;88.67;24.37;;;;;;;;;;4974934;28;20177;-49
2022/01/14 09:53:49;;;;;;;82.70;22.73;;;;;;;;;;4974024;28;20409;-48
2022/01/14 09:56:17;;;;;;;81.53;22.40;;;;;;;;;;4974922;28;20181;-49
2022/01/14 09:58:47;;;;;;;97.18;24.30;;;;;;;;;;4974072;28;20435;-49
2022/01/14 10:01:15;;;;;;;72.00;22.90;;;;;;;;;;4974949;28;20514;-49
2022/01/14 10:04:03;;;;;;;65.32;22.27;;;;;;;;;;4974677;28;20169;-48
2022/01/14 10:06:38;;;;;;;79.20;21.05;;;;;;;;;;4974868;28;20248;-49
2022/01/14 10:09:09;;;;;;;62.92;21.45;;;;;;;;;;4974129;28;20591;-50
2022/01/14 10:11:36;;;;;;;83.20;22.83;;;;;;;;;;4973398;28;20189;-48
2022/01/14 10:14:10;;;;;;;73.90;22.23;;;;;;;;;;4974564;28;20162;-49
2022/01/14 10:16:40;;;;;;;72.85;23.52;;;;;;;;;;4974572;28;20685;-49
2022/01/14 10:19:16;;;;;;;89.45;24.17;;;;;;;;;;4973719;28;20680;-48
2022/01/14 10:21:42;;;;;;;64.57;20.65;;;;;;;;;;4974534;28;20178;-49
2022/01/14 10:24:11;;;;;;;123.23;24.57;;;;;;;;;;4974442;28;20182;-48
2022/01/14 10:26:56;;;;;;;68.78;22.42;;;;;;;;;;4974178;28;20461;-48
2022/01/14 10:29:40;;;;;;;117.30;24.20;;;;;;;;;;4973133;28;20203;-48
2022/01/14 10:32:07;;;;;;;71.97;23.52;;;;;;;;;;4974282;28;20250;-49
2022/01/14 10:34:34;;;;;;;84.70;23.35;;;;;;;;;;4974204;28;20170;-49
2022/01/14 10:37:09;;;;;;;138.73;27.13;;;;;;;;;;4974066;28;20181;-49
2022/01/14 10:39:35;;;;;;;81.65;23.45;;;;;;;;;;4973381;28;20196;-50
2022/01/14 10:42:20;;;;;;;106.28;26.90;;;;;;;;;;4972232;28;20319;-50
2022/01/14 10:44:46;;;;;;;89.20;23.27;;;;;;;;;;4972944;28;20645;-49
2022/01/14 10:47:17;;;;;;;89.95;22.92;;;;;;;;;;4973778;28;20201;-48
2022/01/14 10:49:43;;;;;;;100.25;24.48;;;;;;;;;;4973101;28;20193;-47
2022/01/14 10:52:36;;;;;;;76.05;24.95;;;;;;;;;;4973915;28;20172;-50
2022/01/14 10:55:02;;;;;;;72.78;22.00;;;;;;;;;;4971922;28;20177;-50
2022/01/14 10:57:29;;;;;;;89.13;22.85;;;;;;;;;;4973646;28;20220;-49
2022/01/14 10:59:56;;;;;;;60.50;21.08;;;;;;;;;;4972928;28;20208;-49
2022/01/14 11:02:42;;;;;;;106.00;24.00;;;;;;;;;;4973651;28;20161;-49
2022/01/14 11:05:10;;;;;;;78.57;24.17;;;;;;;;;;4973629;28;20658;-49
2022/01/14 11:07:36;;;;;;;71.88;22.73;;;;;;;;;;4973546;28;20228;-49
2022/01/14 11:10:13;;;;;;;78.13;23.95;;;;;;;;;;4970515;28;20264;-48
2022/01/14 11:12:40;;;;;;;62.47;23.63;;;;;;;;;;4970859;28;20212;-51
2022/01/14 11:15:07;;;;;;;62.92;21.15;;;;;;;;;;4973678;28;20298;-50
2022/01/14 11:17:33;;;;;;;94.13;22.63;;;;;;;;;;4959509;28;20170;-48
2022/01/14 11:19:59;;;;;;;67.63;22.27;;;;;;;;;;4951610;29;20248;-50
2022/01/14 11:25:13;;;;;;;60.00;21.17;;;;;;;;;;4953368;29;20497;-49
2022/01/14 11:27:39;;;;;;;57.20;19.52;;;;;;;;;;4958321;28;20586;-50
2022/01/14 11:30:12;;;;;;;65.75;21.77;;;;;;;;;;4960937;28;20212;-49
2022/01/14 11:33:10;;;;;;;50.50;18.30;;;;;;;;;;4969434;28;20199;-49
2022/01/14 11:35:37;;;;;;;52.13;18.58;;;;;;;;;;4978712;28;20197;-49
2022/01/14 11:38:04;;;;;;;56.97;20.20;;;;;;;;;;4971661;28;20189;-49
2022/01/14 11:40:49;;;;;;;54.25;20.25;;;;;;;;;;4963360;28;20177;-50
2022/01/14 11:43:39;;;;;;;48.08;19.55;;;;;;;;;;4968219;28;20189;-48
2022/01/14 11:46:05;;;;;;;58.75;19.27;;;;;;;;;;4967028;28;20224;-50
2022/01/14 11:48:33;;;;;;;52.25;19.60;;;;;;;;;;4953250;28;20193;-48
2022/01/14 11:51:00;;;;;;;58.72;19.17;;;;;;;;;;4956789;28;20178;-48
2022/01/14 11:53:33;;;;;;;47.28;19.92;;;;;;;;;;4964155;28;20169;-50
2022/01/14 11:55:59;;;;;;;52.50;20.55;;;;;;;;;;4965084;28;20178;-51
2022/01/14 11:58:25;;;;;;;47.10;18.58;;;;;;;;;;4953779;28;20207;-49
2022/01/14 12:00:51;;;;;;;55.20;20.97;;;;;;;;;;4951251;29;20254;-49
2022/01/14 12:03:25;;;;;;;44.10;18.90;;;;;;;;;;4952279;29;20505;-49
2022/01/14 12:05:53;;;;;;;51.17;19.90;;;;;;;;;;4953613;28;20237;-50
2022/01/14 12:08:19;;;;;;;53.33;19.73;;;;;;;;;;4952697;28;20522;-49
2022/01/14 12:10:50;;;;;;;59.30;20.20;;;;;;;;;;4953210;28;20278;-52
2022/01/14 12:13:48;;;;;;;47.67;19.17;;;;;;;;;;4972389;28;20181;-50
2022/01/14 12:18:58;;;;;;;44.75;19.77;;;;;;;;;;4972036;28;20189;-49
2022/01/14 12:21:39;;;;;;;48.53;19.57;;;;;;;;;;4972766;28;20614;-48
2022/01/14 12:24:17;;;;;;;43.65;18.10;;;;;;;;;;4972746;28;20413;-49
2022/01/14 12:26:52;;;;;;;43.95;16.80;;;;;;;;;;4972665;28;20204;-49
2022/01/14 12:29:19;;;;;;;41.58;17.77;;;;;;;;;;4971884;28;20220;-48
2022/01/14 12:32:04;;;;;;;39.42;17.90;;;;;;;;;;4972618;28;20212;-49
2022/01/14 12:34:33;;;;;;;47.45;18.42;;;;;;;;;;4972725;28;20174;-50
2022/01/14 12:36:59;;;;;;;45.20;19.75;;;;;;;;;;4972727;28;20209;-50
2022/01/14 12:39:25;;;;;;;47.17;18.17;;;;;;;;;;4971947;28;20653;-49
2022/01/14 12:41:52;;;;;;;42.67;18.13;;;;;;;;;;4972139;28;20548;-49
2022/01/14 12:44:18;;;;;;;48.78;19.77;;;;;;;;;;4972526;28;20182;-50
2022/01/14 12:49:19;;;;;;;38.35;18.40;;;;;;;;;;4971820;28;20605;-49
2022/01/14 12:51:45;;;;;;;45.10;19.20;;;;;;;;;;4974464;28;20170;-49
2022/01/14 12:54:12;;;;;;;63.00;20.73;;;;;;;;;;4976170;28;20177;-50
2022/01/14 12:56:39;;;;;;;49.97;19.90;;;;;;;;;;4976002;28;20166;-49
2022/01/14 12:59:06;;;;;;;57.47;23.33;;;;;;;;;;4975485;28;20188;-50
2022/01/14 13:01:37;;;;;;;62.22;23.35;;;;;;;;;;4977298;28;20193;-49
2022/01/14 13:04:05;;;;;;;56.53;23.60;;;;;;;;;;4976007;28;20174;-49
2022/01/14 13:06:41;;;;;;;63.85;23.63;;;;;;;;;;4976034;28;20558;-49
2022/01/14 13:09:07;;;;;;;55.35;22.30;;;;;;;;;;4973749;28;20197;-49
2022/01/14 13:11:46;;;;;;;62.95;24.23;;;;;;;;;;4973952;28;20213;-49
2022/01/14 13:14:17;;;;;;;57.00;23.23;;;;;;;;;;4975584;28;20238;-51
2022/01/14 13:16:48;;;;;;;55.38;20.80;;;;;;;;;;4973873;28;20174;-49
2022/01/14 13:19:40;;;;;;;48.20;19.00;;;;;;;;;;4974835;28;20192;-49
2022/01/14 13:22:12;;;;;;;52.88;22.33;;;;;;;;;;4974467;28;20265;-49
2022/01/14 13:24:39;;;;;;;51.50;23.00;;;;;;;;;;4973617;28;20213;-49
2022/01/14 13:27:07;;;;;;;56.33;22.58;;;;;;;;;;4974275;28;20240;-48
2022/01/14 13:29:37;;;;;;;60.50;23.42;;;;;;;;;;4971774;28;20197;-49
2022/01/14 13:32:04;;;;;;;54.78;22.17;;;;;;;;;;4972908;28;20649;-49
2022/01/14 13:34:31;;;;;;;63.08;22.63;;;;;;;;;;4974817;28;20641;-50
2022/01/14 13:36:57;;;;;;;47.20;22.17;;;;;;;;;;4974417;28;20314;-49
2022/01/14 13:39:23;;;;;;;52.60;22.27;;;;;;;;;;4972461;28;20196;-49
2022/01/14 13:41:49;;;;;;;50.03;22.48;;;;;;;;;;4974229;28;20252;-49
2022/01/14 13:44:25;;;;;;;56.08;23.15;;;;;;;;;;4971099;28;20598;-51
2022/01/14 13:46:56;;;;;;;53.63;22.67;;;;;;;;;;4967637;28;20204;-50
2022/01/14 13:49:22;;;;;;;51.33;21.83;;;;;;;;;;4970678;28;20289;-49
2022/01/14 13:52:08;;;;;;;52.08;20.52;;;;;;;;;;4969772;28;20182;-49
2022/01/14 13:54:34;;;;;;;51.38;20.23;;;;;;;;;;4971305;28;20166;-50
2022/01/14 13:57:09;;;;;;;55.78;22.30;;;;;;;;;;4970312;28;20221;-52
2022/01/14 13:59:36;;;;;;;50.30;22.58;;;;;;;;;;4970972;28;20226;-51
2022/01/14 14:02:04;;;;;;;46.20;20.30;;;;;;;;;;4969711;28;20182;-49
2022/01/14 14:04:32;;;;;;;49.50;22.20;;;;;;;;;;4970542;28;20177;-49
2022/01/14 14:07:05;;;;;;;45.38;21.35;;;;;;;;;;4970142;28;20240;-51
2022/01/14 14:09:40;;;;;;;44.60;18.88;;;;;;;;;;4971216;28;20220;-52
2022/01/14 14:13:17;;;;;;;43.38;20.00;;;;;;;;;;4974218;28;20236;-50
2022/01/14 14:17:59;;;;;;;39.65;17.73;;;;;;;;;;4973697;28;20251;-53
2022/01/14 14:20:25;;;;;;;46.53;19.55;;;;;;;;;;4974477;28;20190;-49
2022/01/14 14:22:52;;;;;;;41.60;18.25;;;;;;;;;;4974504;28;20169;-49
2022/01/14 14:25:27;;;;;;;37.47;17.77;;;;;;;;;;4974311;28;20281;-51
2022/01/14 14:28:04;;;;;;;46.92;19.30;;;;;;;;;;4974931;28;20640;-51
2022/01/14 14:30:59;;;;;;;46.15;18.95;;;;;;;;;;4974243;28;20284;-51
2022/01/14 14:33:25;;;;;;;53.40;20.02;;;;;;;;;;4969798;28;20213;-51
2022/01/14 14:35:57;;;;;;;48.50;22.03;;;;;;;;;;4973033;28;20255;-51
2022/01/14 14:38:26;;;;;;;50.42;20.08;;;;;;;;;;4972446;28;20489;-51
2022/01/14 14:40:58;;;;;;;50.03;19.77;;;;;;;;;;4974129;28;20169;-49
2022/01/14 14:43:24;;;;;;;44.90;21.58;;;;;;;;;;4974148;28;20170;-49
2022/01/14 14:45:50;;;;;;;53.20;22.57;;;;;;;;;;4973909;28;20200;-49
2022/01/14 14:48:17;;;;;;;43.23;19.10;;;;;;;;;;4970645;28;20845;-50
2022/01/14 14:50:42;;;;;;;26.25;14.10;;;;;;;;;;4973942;28;20415;-49
2022/01/14 14:53:08;;;;;;;29.37;12.80;;;;;;;;;;4969668;28;20173;-49
2022/01/14 14:55:35;;;;;;;41.77;18.57;;;;;;;;;;4972161;28;20436;-50